createdAt,value
2019-03-27T00:02:03.623Z,91.00
2019-03-27T00:04:29.715Z,91.20
2019-03-27T00:06:55.894Z,91.10
2019-03-27T00:09:22.099Z,91.10
2019-03-27T00:11:48.155Z,91.10
2019-03-27T00:14:14.211Z,91.10
2019-03-27T00:16:40.264Z,91.20
2019-03-27T00:19:06.344Z,91.10
2019-03-27T00:21:32.409Z,91.00
2019-03-27T00:23:58.455Z,90.80
2019-03-27T00:26:24.515Z,90.70
2019-03-27T00:28:50.735Z,90.90
2019-03-27T00:31:16.839Z,90.90
2019-03-27T00:33:42.983Z,90.80
2019-03-27T00:36:09.051Z,90.60
2019-03-27T00:38:35.212Z,90.60
2019-03-27T00:41:01.309Z,90.70
2019-03-27T00:43:27.359Z,90.70
2019-03-27T00:45:53.429Z,90.30
2019-03-27T00:48:20.665Z,90.60
2019-03-27T00:50:46.814Z,90.70
2019-03-27T00:53:12.998Z,90.50
2019-03-27T00:55:39.186Z,90.80
2019-03-27T00:58:05.264Z,90.90
2019-03-27T01:00:41.074Z,90.60
2019-03-27T01:03:07.146Z,90.90
2019-03-27T01:05:33.207Z,90.90
2019-03-27T01:07:59.259Z,91.00
2019-03-27T01:10:25.315Z,90.80
2019-03-27T01:12:51.418Z,91.00
2019-03-27T01:15:17.475Z,91.20
2019-03-27T01:17:43.649Z,91.10
2019-03-27T01:20:10.124Z,91.10
2019-03-27T01:22:36.187Z,91.10
2019-03-27T01:25:03.455Z,91.20
2019-03-27T01:27:29.523Z,91.10
2019-03-27T01:29:55.576Z,90.90
2019-03-27T01:32:21.639Z,91.20
2019-03-27T01:34:47.703Z,91.20
2019-03-27T01:37:13.776Z,90.90
2019-03-27T01:39:39.843Z,91.20
2019-03-27T01:42:05.903Z,91.20
2019-03-27T01:44:31.987Z,90.90
2019-03-27T01:46:58.040Z,90.80
2019-03-27T01:49:24.103Z,91.10
2019-03-27T01:51:50.171Z,91.10
2019-03-27T01:54:16.224Z,91.20
2019-03-27T01:56:42.335Z,91.30
2019-03-27T01:59:08.420Z,91.30
2019-03-27T02:01:34.471Z,91.00
2019-03-27T02:04:00.531Z,91.20
2019-03-27T02:06:26.599Z,91.20
2019-03-27T02:08:52.663Z,91.30
2019-03-27T02:11:18.711Z,91.40
2019-03-27T02:13:44.795Z,91.30
2019-03-27T02:16:10.836Z,91.40
2019-03-27T02:18:36.887Z,91.40
2019-03-27T02:21:03.038Z,91.40
2019-03-27T02:23:29.087Z,91.40
2019-03-27T02:25:55.210Z,91.40
2019-03-27T02:28:21.368Z,91.40
2019-03-27T02:30:47.463Z,91.50
2019-03-27T02:33:13.604Z,91.50
2019-03-27T02:35:39.656Z,91.50
2019-03-27T02:38:05.712Z,91.60
2019-03-27T02:40:31.865Z,91.60
2019-03-27T02:42:57.920Z,91.50
2019-03-27T02:45:23.972Z,91.50
2019-03-27T02:47:50.057Z,91.50
2019-03-27T02:50:16.103Z,91.60
2019-03-27T02:52:42.157Z,91.60
2019-03-27T02:55:08.520Z,91.90
2019-03-27T02:57:34.583Z,91.60
2019-03-27T03:00:00.676Z,91.40
2019-03-27T03:02:26.823Z,91.70
2019-03-27T03:04:52.883Z,91.20
2019-03-27T03:07:18.944Z,91.50
2019-03-27T03:09:44.990Z,91.20
2019-03-27T03:12:11.056Z,91.40
2019-03-27T03:14:37.222Z,91.20
2019-03-27T03:17:03.373Z,91.20
2019-03-27T03:19:29.525Z,91.30
2019-03-27T03:21:55.595Z,91.30
2019-03-27T03:24:21.779Z,91.40
2019-03-27T03:26:51.021Z,91.40
2019-03-27T03:29:15.835Z,91.20
2019-03-27T03:31:41.994Z,91.30
2019-03-27T03:34:08.192Z,91.70
2019-03-27T03:36:34.338Z,91.30
2019-03-27T03:39:00.488Z,91.40
2019-03-27T03:41:26.562Z,91.30
2019-03-27T03:43:52.616Z,91.20
2019-03-27T03:46:18.703Z,91.20
2019-03-27T03:48:44.840Z,91.20
2019-03-27T03:51:11.613Z,91.30
2019-03-27T03:53:37.864Z,91.30
2019-03-27T03:56:04.423Z,91.30
2019-03-27T03:58:34.404Z,91.00
2019-03-27T04:01:01.275Z,91.20
2019-03-27T04:03:28.551Z,91.30
2019-03-27T04:05:54.608Z,91.30
2019-03-27T04:08:20.735Z,91.10
2019-03-27T04:10:46.792Z,91.40
2019-03-27T04:13:12.868Z,91.50
2019-03-27T04:15:39.128Z,91.50
2019-03-27T04:18:05.321Z,91.40
2019-03-27T04:20:31.362Z,91.60
2019-03-27T04:22:57.411Z,91.70
2019-03-27T04:25:23.572Z,91.60
2019-03-27T04:27:49.632Z,91.60
2019-03-27T04:30:16.097Z,91.60
2019-03-27T04:32:42.157Z,91.20
2019-03-27T04:35:08.216Z,91.50
2019-03-27T04:37:34.259Z,91.00
2019-03-27T04:40:00.404Z,91.20
2019-03-27T04:42:26.619Z,91.30
2019-03-27T04:44:52.663Z,91.30
2019-03-27T04:47:31.486Z,91.30
2019-03-27T04:49:46.751Z,90.90
2019-03-27T04:52:12.860Z,91.20
2019-03-27T04:54:39.007Z,91.20
2019-03-27T04:57:05.067Z,91.10
2019-03-27T04:59:31.143Z,91.10
2019-03-27T05:01:57.198Z,91.10
2019-03-27T05:04:23.751Z,90.90
2019-03-27T05:06:49.804Z,91.20
2019-03-27T05:09:15.852Z,91.90
2019-03-27T05:11:41.919Z,91.30
2019-03-27T05:14:08.012Z,91.30
2019-03-27T05:16:34.075Z,91.20
2019-03-27T05:19:00.147Z,90.80
2019-03-27T05:21:26.204Z,91.10
2019-03-27T05:23:52.361Z,90.80
2019-03-27T05:26:18.426Z,90.70
2019-03-27T05:28:44.487Z,90.70
2019-03-27T05:31:10.552Z,90.60
2019-03-27T05:36:03.084Z,90.50
2019-03-27T05:38:29.144Z,90.30
2019-03-27T05:40:55.204Z,90.10
2019-03-27T05:43:21.275Z,90.00
2019-03-27T05:45:47.453Z,89.80
2019-03-27T05:48:13.538Z,89.40
2019-03-27T05:53:06.136Z,88.90
2019-03-27T05:57:58.613Z,88.80
2019-03-27T06:00:24.668Z,88.90
2019-03-27T06:02:50.732Z,88.80
2019-03-27T06:07:43.247Z,87.90
2019-03-27T06:10:09.591Z,87.80
2019-03-27T06:12:35.664Z,87.90
2019-03-27T06:17:29.375Z,87.20
2019-03-27T06:19:55.615Z,87.00
2019-03-27T06:22:21.677Z,87.30
2019-03-27T06:24:47.884Z,87.10
2019-03-27T06:29:40.556Z,86.40
2019-03-27T06:32:06.606Z,85.90
2019-03-27T06:36:59.104Z,86.40
2019-03-27T06:41:51.722Z,83.40
2019-03-27T06:44:17.768Z,90.50
2019-03-27T06:46:43.839Z,81.90
2019-03-27T06:49:09.891Z,91.40
2019-03-27T06:51:40.363Z,84.10
2019-03-27T06:54:03.916Z,91.00
2019-03-27T06:56:29.971Z,91.20
2019-03-27T07:06:15.795Z,91.60
2019-03-27T07:08:41.860Z,89.50
2019-03-27T07:11:08.025Z,84.40
2019-03-27T07:25:49.334Z,80.30
2019-03-27T07:28:15.385Z,80.00
2019-03-27T07:33:07.879Z,79.00
2019-03-27T07:35:33.951Z,78.70
2019-03-27T07:38:00.119Z,79.20
2019-03-27T07:40:26.171Z,76.50
2019-03-27T07:42:52.233Z,76.00
2019-03-27T07:45:19.215Z,75.90
2019-03-27T07:47:48.057Z,74.00
2019-03-27T07:50:13.615Z,73.60
2019-03-27T07:52:39.678Z,72.60
2019-03-27T07:55:18.661Z,72.20
2019-03-27T07:57:34.004Z,71.80
2019-03-27T08:02:26.512Z,71.20
2019-03-27T08:04:52.619Z,71.10
2019-03-27T08:07:26.602Z,70.60
2019-03-27T08:09:46.820Z,70.50
2019-03-27T08:12:12.928Z,97.10
2019-03-27T08:14:39.014Z,71.50
2019-03-27T08:19:31.636Z,70.00
2019-03-27T08:21:57.706Z,70.10
2019-03-27T08:24:23.823Z,67.90
2019-03-27T08:26:49.897Z,66.80
2019-03-27T08:29:15.983Z,67.30
2019-03-27T08:31:42.163Z,68.30
2019-03-27T08:34:08.221Z,67.60
2019-03-27T08:36:34.307Z,67.20
2019-03-27T08:39:00.478Z,67.40
2019-03-27T08:41:26.545Z,68.40
2019-03-27T08:43:52.614Z,68.00
2019-03-27T08:46:18.696Z,66.90
2019-03-27T08:48:44.872Z,67.90
2019-03-27T08:51:10.951Z,70.00
2019-03-27T08:53:37.003Z,67.20
2019-03-27T08:56:03.055Z,67.40
2019-03-27T08:58:29.122Z,67.20
2019-03-27T09:00:55.281Z,65.40
2019-03-27T09:03:21.431Z,64.60
2019-03-27T09:05:47.802Z,64.50
2019-03-27T09:08:14.276Z,63.50
2019-03-27T09:17:59.711Z,58.60
2019-03-27T09:20:25.766Z,58.30
2019-03-27T09:25:18.275Z,60.20
2019-03-27T09:27:44.325Z,60.00
2019-03-27T09:32:37.431Z,58.50
2019-03-27T09:35:03.821Z,58.80
2019-03-27T09:47:15.744Z,57.20
2019-03-27T09:49:49.397Z,57.50
2019-03-27T09:52:09.895Z,57.60
2019-03-27T09:59:28.887Z,57.90
2019-03-27T10:04:21.505Z,57.60
2019-03-27T10:06:47.604Z,57.70
2019-03-27T10:09:13.720Z,57.50
2019-03-27T10:11:39.860Z,57.30
2019-03-27T10:14:05.922Z,56.50
2019-03-27T10:21:24.855Z,56.20
2019-03-27T10:23:51.126Z,56.20
2019-03-27T10:26:17.281Z,56.00
2019-03-27T10:28:43.360Z,56.90
2019-03-27T10:31:09.424Z,57.00
2019-03-27T10:33:35.484Z,57.80
2019-03-27T10:38:28.035Z,57.10
2019-03-27T10:40:54.088Z,57.60
2019-03-27T10:43:20.243Z,58.30
2019-03-27T10:53:06.629Z,59.10
2019-03-27T10:55:34.478Z,59.40
2019-03-27T11:00:27.186Z,62.50
2019-03-27T11:02:53.262Z,62.50
2019-03-27T11:05:19.403Z,63.50
2019-03-27T11:10:12.607Z,61.50
2019-03-27T11:17:32.225Z,63.30
2019-03-27T11:19:58.288Z,64.70
2019-03-27T11:22:24.352Z,66.00
2019-03-27T11:24:50.433Z,66.20
2019-03-27T11:32:09.576Z,68.00
2019-03-27T11:44:21.556Z,70.30
2019-03-27T11:46:47.621Z,70.60
2019-03-27T11:49:13.680Z,71.10
2019-03-27T11:51:39.887Z,72.40
2019-03-27T11:58:58.860Z,73.40
2019-03-27T12:01:38.372Z,74.10
2019-03-27T12:03:52.886Z,74.90
2019-03-27T12:06:18.980Z,76.00
2019-03-27T12:08:45.027Z,77.90
2019-03-27T12:16:04.091Z,76.60
2019-03-27T12:18:32.009Z,77.50
2019-03-27T12:20:59.766Z,77.50
2019-03-27T12:25:55.259Z,79.20
2019-03-27T12:28:21.295Z,82.50
2019-03-27T12:30:47.381Z,83.20
2019-03-27T12:33:13.656Z,80.40
2019-03-27T12:35:39.707Z,80.20
2019-03-27T12:47:51.913Z,79.00
2019-03-27T12:52:44.474Z,78.10
2019-03-27T12:55:10.621Z,82.50
2019-03-27T12:57:36.679Z,81.90
2019-03-27T13:00:05.847Z,80.60
2019-03-27T13:07:24.981Z,83.00
2019-03-27T13:12:17.487Z,81.90
2019-03-27T13:17:09.972Z,83.40
2019-03-27T13:19:36.036Z,84.40
2019-03-27T13:22:02.119Z,84.10
2019-03-27T13:26:54.698Z,84.40
2019-03-27T13:29:20.764Z,85.00
2019-03-27T13:31:46.824Z,85.00
2019-03-27T13:34:12.915Z,85.70
2019-03-27T13:36:40.964Z,86.00
2019-03-27T13:41:33.595Z,85.50
2019-03-27T13:46:26.079Z,86.30
2019-03-27T13:48:52.151Z,86.30
2019-03-27T13:51:18.203Z,86.30
2019-03-27T13:56:10.687Z,86.80
2019-03-27T14:03:29.624Z,87.70
2019-03-27T14:05:55.775Z,87.60
2019-03-27T14:08:22.027Z,87.10
2019-03-27T14:10:48.271Z,87.20
2019-03-27T14:13:14.323Z,87.30
2019-03-27T14:15:40.388Z,87.00
2019-03-27T14:22:59.419Z,87.50
2019-03-27T14:25:25.490Z,87.90
2019-03-27T14:27:51.543Z,88.40
2019-03-27T14:30:53.220Z,88.60
2019-03-27T14:35:45.699Z,89.00
2019-03-27T14:38:11.750Z,90.30
2019-03-27T14:40:37.811Z,88.80
2019-03-27T14:43:03.976Z,91.80
2019-03-27T14:47:56.579Z,91.30
2019-03-27T14:50:22.660Z,90.60
2019-03-27T14:52:48.819Z,91.00
2019-03-27T14:55:14.871Z,90.70
2019-03-27T14:57:40.935Z,91.30
2019-03-27T15:00:09.031Z,92.30
2019-03-27T15:02:35.207Z,91.30
2019-03-27T15:05:01.287Z,91.50
2019-03-27T15:09:53.884Z,90.10
2019-03-27T15:12:19.933Z,90.10
2019-03-27T15:19:38.899Z,92.80
2019-03-27T15:22:05.000Z,91.70
2019-03-27T15:26:57.500Z,93.50
2019-03-27T15:36:42.999Z,92.30
2019-03-27T15:39:09.164Z,92.50
2019-03-27T15:41:35.236Z,92.60
2019-03-27T15:44:01.293Z,93.30
2019-03-27T15:48:53.966Z,93.00
2019-03-27T15:51:20.154Z,92.80
2019-03-27T15:53:47.399Z,93.20
2019-03-27T15:58:40.429Z,93.10
2019-03-27T16:01:06.806Z,93.70
2019-03-27T16:05:59.701Z,94.50
2019-03-27T16:08:25.909Z,94.00
2019-03-27T16:18:11.496Z,93.00
2019-03-27T16:20:37.547Z,93.10
2019-03-27T16:23:03.760Z,93.40
2019-03-27T16:27:56.302Z,94.20
2019-03-27T16:30:22.355Z,94.00
2019-03-27T16:32:48.435Z,93.70
2019-03-27T16:37:41.003Z,93.60
2019-03-27T16:40:07.563Z,94.30
2019-03-27T16:45:00.093Z,93.10
2019-03-27T16:47:26.371Z,92.90
2019-03-27T16:49:52.519Z,93.50
2019-03-27T16:57:11.670Z,94.10
2019-03-27T16:59:37.728Z,94.20
2019-03-27T17:02:04.403Z,94.10
2019-03-27T17:09:23.337Z,95.20
2019-03-27T17:11:49.382Z,95.80
2019-03-27T17:14:15.452Z,96.20
2019-03-27T17:16:41.515Z,95.90
2019-03-27T17:21:34.060Z,96.20
2019-03-27T17:26:26.576Z,96.40
2019-03-27T17:28:52.631Z,96.10
2019-03-27T17:33:45.172Z,95.50
2019-03-27T17:36:11.219Z,96.10
2019-03-27T17:38:37.276Z,96.00
2019-03-27T17:41:03.338Z,96.10
2019-03-27T17:45:55.847Z,96.30
2019-03-27T17:48:22.011Z,96.00
2019-03-27T17:53:14.515Z,97.20
2019-03-27T17:58:06.991Z,97.50
2019-03-27T18:03:06.939Z,97.70
2019-03-27T18:05:32.997Z,96.30
2019-03-27T18:07:59.075Z,97.10
2019-03-27T18:10:25.132Z,96.70
2019-03-27T18:12:51.191Z,96.10
2019-03-27T18:15:17.246Z,96.10
2019-03-27T18:17:43.304Z,96.20
2019-03-27T18:20:09.758Z,97.10
2019-03-27T18:22:35.841Z,97.70
2019-03-27T18:25:04.103Z,98.10
2019-03-27T18:27:30.183Z,97.70
2019-03-27T18:29:56.340Z,97.10
2019-03-27T18:32:22.419Z,97.80
2019-03-27T18:39:41.387Z,95.30
2019-03-27T18:47:00.406Z,95.50
2019-03-27T18:49:26.559Z,94.80
2019-03-27T18:51:52.607Z,94.60
2019-03-27T18:54:18.688Z,94.50
2019-03-27T18:56:44.767Z,94.50
2019-03-27T18:59:10.844Z,94.50
2019-03-27T19:16:15.675Z,93.90
2019-03-27T19:18:41.824Z,93.70
2019-03-27T19:21:07.912Z,93.70
2019-03-27T19:23:34.047Z,93.80
2019-03-27T19:28:26.664Z,94.50
2019-03-27T19:30:52.863Z,95.00
2019-03-27T19:33:18.947Z,94.80
2019-03-27T19:38:11.543Z,94.50
2019-03-27T19:43:04.063Z,94.30
2019-03-27T19:50:23.207Z,93.90
2019-03-27T19:57:42.151Z,94.10
2019-03-27T20:00:09.794Z,94.10
2019-03-27T20:07:35.977Z,94.20
2019-03-27T20:09:57.811Z,94.30
2019-03-27T20:12:23.883Z,94.30
2019-03-27T20:19:42.972Z,93.50
2019-03-27T20:24:40.860Z,94.00
2019-03-27T20:29:30.067Z,94.00
2019-03-27T20:31:56.120Z,93.70
2019-03-27T20:41:41.631Z,93.60
2019-03-27T20:44:07.695Z,93.80
2019-03-27T20:46:33.803Z,93.70
2019-03-27T20:51:26.314Z,94.10
2019-03-27T20:53:52.607Z,93.30
2019-03-27T20:56:18.663Z,93.80
2019-03-27T20:58:44.767Z,93.20
2019-03-27T21:01:10.935Z,94.80
2019-03-27T21:20:42.142Z,92.90
2019-03-27T21:23:08.200Z,93.00
2019-03-27T21:25:34.252Z,93.10
2019-03-27T21:28:00.322Z,93.30
2019-03-27T21:30:26.512Z,93.40
2019-03-27T21:32:52.692Z,93.50
2019-03-27T21:35:18.760Z,93.40
2019-03-27T21:37:44.948Z,93.40
2019-03-27T21:40:11.715Z,93.30
2019-03-27T21:42:37.891Z,93.20
2019-03-27T21:45:08.444Z,93.10
2019-03-27T21:50:06.124Z,92.90
2019-03-27T21:52:32.360Z,92.90
2019-03-27T21:54:58.537Z,93.00
2019-03-27T21:57:24.625Z,93.10
2019-03-27T21:59:50.881Z,93.10
2019-03-27T22:02:17.124Z,93.20
2019-03-27T22:04:43.179Z,93.00
2019-03-27T22:07:09.270Z,92.90
2019-03-27T22:09:35.378Z,92.90
2019-03-27T22:12:01.494Z,92.80
2019-03-27T22:16:54.126Z,92.70
2019-03-27T22:19:20.212Z,92.70
2019-03-27T22:21:46.407Z,92.70
2019-03-27T22:24:12.612Z,92.70
2019-03-27T22:26:38.903Z,92.60
2019-03-27T22:29:04.989Z,92.70
2019-03-27T22:31:31.058Z,92.70
2019-03-27T22:33:57.147Z,92.80
2019-03-27T22:36:23.339Z,92.80
2019-03-27T22:38:49.424Z,92.70
2019-03-27T22:41:15.571Z,92.60
2019-03-27T22:43:41.660Z,92.50
2019-03-27T22:46:07.823Z,92.60
2019-03-27T22:48:34.095Z,92.50
2019-03-27T22:51:00.231Z,92.50
2019-03-27T22:55:52.872Z,92.50
2019-03-27T22:58:18.935Z,92.60
2019-03-27T23:03:18.637Z,92.60
2019-03-27T23:10:35.335Z,92.30
2019-03-27T23:13:01.501Z,92.30
2019-03-27T23:17:54.002Z,92.30
2019-03-27T23:20:20.202Z,92.30
2019-03-27T23:22:46.403Z,92.30
2019-03-27T23:25:12.769Z,92.50
2019-03-27T23:27:38.826Z,92.50
2019-03-27T23:30:07.079Z,92.50
2019-03-27T23:32:33.137Z,92.50
2019-03-27T23:39:52.235Z,92.30
2019-03-27T23:42:18.384Z,92.30
2019-03-27T23:44:44.478Z,92.20
2019-03-27T23:47:10.528Z,92.20
2019-03-27T23:49:36.613Z,92.20
2019-03-27T23:52:02.920Z,92.30
2019-03-27T23:54:29.168Z,92.20
2019-03-27T23:56:55.235Z,92.30
2019-03-27T23:59:21.283Z,92.50
